Time;durP1;ratioP1;P1;durP2;ratioP2;P2;SDS_P1;SDS_P2;PMS_P1;PMS_P2;Temp;Humidity;BMP_temperature;BMP_pressure;BME280_temperature;BME280_humidity;BME280_pressure;Samples;Min_cycle;Max_cycle;Signal;HPM_P1;HPM_P2
2023/07/23 00:01:47;;;;;;;5.20;3.90;;;;;;;12.04;74.12;100409.27;78812;292;3028530;-70
2023/07/23 00:04:23;;;;;;;5.70;5.00;;;;;;;12.04;74.11;100408.62;78822;280;3027386;-73
2023/07/23 00:06:58;;;;;;;5.20;4.60;;;;;;;12.03;74.11;100410.89;78834;280;3027965;-73
2023/07/23 00:09:34;;;;;;;6.40;4.90;;;;;;;12.01;74.22;100405.57;78887;280;3027313;-73
2023/07/23 00:12:10;;;;;;;7.10;4.10;;;;;;;11.97;74.46;100403.13;78871;280;3028384;-73
2023/07/23 00:14:45;;;;;;;6.90;4.80;;;;;;;11.95;74.65;100402.38;78842;280;3027431;-74
2023/07/23 00:17:21;;;;;;;7.60;4.20;;;;;;;11.92;74.76;100401.11;78863;280;3028380;-74
2023/07/23 00:19:56;;;;;;;6.10;4.50;;;;;;;11.88;74.93;100399.82;78919;280;3028723;-71
2023/07/23 00:22:32;;;;;;;6.50;4.90;;;;;;;11.88;75.03;100396.89;78851;280;3027417;-72
2023/07/23 00:25:11;;;;;;;5.00;4.50;;;;;;;11.86;75.11;100393.14;78885;279;3027990;-71
2023/07/23 00:27:46;;;;;;;5.00;4.50;;;;;;;11.83;75.19;100391.64;78877;280;3027142;-71
2023/07/23 00:30:22;;;;;;;6.20;4.80;;;;;;;11.81;75.28;100387.20;79619;280;3011579;-72
2023/07/23 00:32:59;;;;;;;5.70;4.30;;;;;;;11.78;75.30;100382.60;79575;280;3011570;-74
2023/07/23 00:35:35;;;;;;;5.20;4.10;;;;;;;11.77;75.34;100383.70;78899;280;3029809;-73
2023/07/23 00:38:10;;;;;;;5.70;4.40;;;;;;;11.75;75.30;100381.33;78885;280;3028439;-73
2023/07/23 00:40:46;;;;;;;5.50;4.80;;;;;;;11.72;75.48;100384.23;79626;280;3011435;-73
2023/07/23 00:43:22;;;;;;;6.50;4.60;;;;;;;11.67;75.57;100384.79;78823;280;3028074;-74
2023/07/23 00:45:57;;;;;;;5.80;4.70;;;;;;;11.65;75.64;100385.06;78862;280;3028444;-72
2023/07/23 00:48:33;;;;;;;4.80;4.00;;;;;;;11.67;75.88;100390.56;78837;272;3028414;-71
2023/07/23 00:51:08;;;;;;;5.40;4.40;;;;;;;11.65;75.76;100389.10;78845;280;3026705;-71
2023/07/23 00:53:44;;;;;;;5.90;5.10;;;;;;;11.60;75.70;100387.38;78840;280;3027665;-71
2023/07/23 00:56:20;;;;;;;6.80;5.30;;;;;;;11.55;75.73;100388.09;79577;280;3011593;-74
2023/07/23 00:58:56;;;;;;;7.30;4.70;;;;;;;11.50;75.89;100387.63;78830;280;3027925;-72
2023/07/23 01:01:32;;;;;;;6.00;5.00;;;;;;;11.45;76.10;100385.05;79562;280;3013436;-70
2023/07/23 01:04:08;;;;;;;4.80;4.20;;;;;;;11.41;76.31;100381.89;78853;280;3027827;-71
2023/07/23 01:06:45;;;;;;;7.00;5.20;;;;;;;11.41;76.26;100380.67;78877;280;3028121;-72
2023/07/23 01:09:21;;;;;;;5.30;4.50;;;;;;;11.38;76.46;100382.88;78882;280;3026925;-69
2023/07/23 01:11:56;;;;;;;5.00;4.30;;;;;;;11.36;76.47;100385.77;78903;280;3027550;-71
2023/07/23 01:14:34;;;;;;;5.10;4.30;;;;;;;11.32;76.55;100377.19;79604;279;3011635;-73
2023/07/23 01:17:09;;;;;;;6.30;5.00;;;;;;;11.28;76.74;100378.39;78900;280;3027508;-72
2023/07/23 01:19:44;;;;;;;6.50;4.60;;;;;;;11.25;76.83;100375.52;78923;280;3027217;-71
2023/07/23 01:22:21;;;;;;;6.00;4.50;;;;;;;11.23;77.04;100374.05;78899;280;3028188;-71
2023/07/23 01:24:56;;;;;;;5.50;4.90;;;;;;;11.22;77.31;100376.19;78871;280;3027723;-73
2023/07/23 01:27:31;;;;;;;6.30;4.40;;;;;;;11.24;77.38;100370.69;78828;280;3027515;-73
2023/07/23 01:30:11;;;;;;;5.10;4.40;;;;;;;11.25;77.53;100365.44;79597;280;3011357;-71
2023/07/23 01:32:46;;;;;;;5.80;5.00;;;;;;;11.23;77.60;100369.52;78810;280;3027059;-71
2023/07/23 01:35:22;;;;;;;7.70;5.00;;;;;;;11.21;77.67;100361.56;78883;280;3028196;-70
2023/07/23 01:37:57;;;;;;;6.40;4.60;;;;;;;11.19;77.65;100357.48;78713;280;3027553;-70
2023/07/23 01:40:33;;;;;;;5.30;4.60;;;;;;;11.16;77.65;100363.36;78896;280;3027696;-71
2023/07/23 01:43:08;;;;;;;6.30;4.60;;;;;;;11.12;77.79;100359.66;78848;280;3026895;-71
2023/07/23 01:45:47;;;;;;;5.00;4.50;;;;;;;11.09;77.89;100362.90;78844;280;3027653;-71
2023/07/23 01:48:23;;;;;;;5.70;4.70;;;;;;;11.07;77.94;100366.31;78813;280;3028700;-70
2023/07/23 01:50:59;;;;;;;7.10;4.90;;;;;;;11.04;78.02;100368.17;78754;281;3031011;-70
2023/07/23 01:53:35;;;;;;;5.60;4.90;;;;;;;11.00;78.15;100371.14;78837;280;3027347;-70
2023/07/23 01:56:10;;;;;;;7.30;4.60;;;;;;;10.97;78.36;100375.80;78865;279;3027845;-71
2023/07/23 01:58:46;;;;;;;5.60;4.50;;;;;;;10.96;78.36;100374.09;79630;280;3011437;-71
2023/07/23 02:01:23;;;;;;;5.30;4.30;;;;;;;10.94;78.35;100374.73;78898;280;3027492;-71
2023/07/23 02:03:59;;;;;;;5.50;4.70;;;;;;;10.92;78.51;100376.52;78890;280;3027575;-70
2023/07/23 02:06:36;;;;;;;6.30;4.80;;;;;;;10.89;78.58;100377.86;78899;280;3027270;-70
2023/07/23 02:09:11;;;;;;;7.10;4.70;;;;;;;10.86;78.74;100375.70;78905;280;3028004;-70
2023/07/23 02:11:47;;;;;;;5.90;4.80;;;;;;;10.83;78.86;100371.96;79604;280;3011585;-70
2023/07/23 02:14:23;;;;;;;6.60;4.80;;;;;;;10.84;78.92;100372.65;79610;280;3011849;-70
2023/07/23 02:17:00;;;;;;;8.10;5.30;;;;;;;10.84;78.97;100376.85;79554;280;3013324;-70
2023/07/23 02:19:36;;;;;;;7.80;5.00;;;;;;;10.81;79.22;100379.56;78861;280;3028442;-72
2023/07/23 02:22:12;;;;;;;5.80;4.90;;;;;;;10.78;79.27;100379.86;78842;280;3026726;-72
2023/07/23 02:24:47;;;;;;;5.80;4.50;;;;;;;10.74;79.32;100381.57;78860;280;3027388;-73
2023/07/23 02:27:24;;;;;;;5.10;4.50;;;;;;;10.72;79.44;100382.73;79597;280;3011962;-73
2023/07/23 02:30:00;;;;;;;5.40;4.50;;;;;;;10.72;79.60;100377.84;79590;280;3011882;-73
2023/07/23 02:32:36;;;;;;;5.40;4.80;;;;;;;10.71;79.59;100378.73;78845;280;3027478;-73
2023/07/23 02:35:13;;;;;;;5.70;4.70;;;;;;;10.68;79.59;100381.65;79645;280;3011416;-73
2023/07/23 02:37:49;;;;;;;6.10;4.40;;;;;;;10.65;79.78;100381.05;78856;280;3027685;-73
2023/07/23 02:40:24;;;;;;;7.00;4.80;;;;;;;10.64;79.78;100378.66;78863;280;3027403;-71
2023/07/23 02:43:00;;;;;;;6.40;4.60;;;;;;;10.63;79.97;100375.55;79644;280;3011571;-70
2023/07/23 02:45:36;;;;;;;5.30;4.80;;;;;;;10.61;79.98;100371.77;78896;280;3027157;-73
2023/07/23 02:48:11;;;;;;;5.80;4.80;;;;;;;10.60;80.06;100367.46;78917;280;3028249;-73
2023/07/23 02:50:47;;;;;;;6.00;4.80;;;;;;;10.59;80.25;100372.58;79605;280;3012630;-71
2023/07/23 02:53:26;;;;;;;5.80;4.80;;;;;;;10.56;80.41;100368.84;79562;268;3011567;-73
2023/07/23 02:56:01;;;;;;;4.90;4.40;;;;;;;10.58;80.52;100367.38;78831;280;3027003;-73
2023/07/23 02:58:36;;;;;;;5.90;5.30;;;;;;;10.60;80.67;100371.31;78844;278;3027111;-73
2023/07/23 03:01:13;;;;;;;6.30;4.80;;;;;;;10.61;80.62;100373.36;79605;280;3013296;-72
2023/07/23 03:03:49;;;;;;;7.00;4.50;;;;;;;10.62;80.66;100370.88;79569;280;3013100;-74
2023/07/23 03:06:25;;;;;;;6.40;4.50;;;;;;;10.63;80.60;100372.27;78800;280;3027704;-74
2023/07/23 03:09:01;;;;;;;4.80;4.20;;;;;;;10.64;80.74;100375.67;79608;280;3011403;-72
2023/07/23 03:11:37;;;;;;;6.00;4.50;;;;;;;10.67;80.86;100372.23;79602;280;3011576;-74
2023/07/23 03:14:13;;;;;;;5.90;4.90;;;;;;;10.72;81.10;100372.23;79574;280;3011480;-70
2023/07/23 03:16:49;;;;;;;5.10;4.60;;;;;;;10.77;81.18;100373.95;78859;280;3027586;-70
2023/07/23 03:19:24;;;;;;;6.60;5.10;;;;;;;10.81;81.12;100370.83;78855;280;3026701;-73
2023/07/23 03:22:01;;;;;;;5.80;4.60;;;;;;;10.87;81.29;100375.16;79593;279;3011441;-72
2023/07/23 03:24:36;;;;;;;7.10;5.10;;;;;;;10.94;81.36;100368.07;78869;280;3027526;-73
2023/07/23 03:27:12;;;;;;;7.40;4.70;;;;;;;11.00;81.40;100363.98;79663;280;3013431;-72
2023/07/23 03:29:49;;;;;;;4.80;4.30;;;;;;;11.06;81.48;100357.11;78903;280;3027702;-72
2023/07/23 03:32:24;;;;;;;6.60;4.80;;;;;;;11.13;81.52;100352.47;78862;280;3028526;-73
2023/07/23 03:35:01;;;;;;;5.70;4.70;;;;;;;11.24;81.69;100349.39;79627;280;3011507;-75
2023/07/23 03:37:37;;;;;;;6.40;4.80;;;;;;;11.35;81.67;100350.86;79443;280;3013402;-74
2023/07/23 03:40:14;;;;;;;6.60;5.60;;;;;;;11.46;81.62;100353.58;78881;280;3026824;-74
2023/07/23 03:42:49;;;;;;;6.30;5.70;;;;;;;11.56;81.51;100353.48;78838;280;3026727;-74
2023/07/23 03:45:25;;;;;;;6.60;5.90;;;;;;;11.65;81.58;100353.42;79542;280;3012794;-71
2023/07/23 03:48:02;;;;;;;6.80;6.20;;;;;;;11.77;81.57;100350.28;79580;280;3013310;-71
2023/07/23 03:50:37;;;;;;;7.00;6.00;;;;;;;12.22;82.33;100350.08;78823;280;3027470;-70
2023/07/23 03:53:13;;;;;;;6.50;5.80;;;;;;;13.04;83.38;100347.33;79583;280;3011085;-70
2023/07/23 03:55:49;;;;;;;9.70;6.80;;;;;;;13.91;81.98;100348.58;79581;280;3011511;-74
2023/07/23 03:58:26;;;;;;;6.60;5.90;;;;;;;14.46;80.12;100350.02;79583;280;3011569;-74
2023/07/23 04:01:01;;;;;;;7.60;6.50;;;;;;;15.08;78.48;100350.09;78868;280;3027369;-73
2023/07/23 04:03:37;;;;;;;7.20;6.30;;;;;;;15.82;77.19;100345.97;79616;280;3011409;-72
2023/07/23 04:06:14;;;;;;;7.50;6.20;;;;;;;16.54;74.41;100347.34;78923;280;3029550;-71
2023/07/23 04:08:53;;;;;;;6.90;6.30;;;;;;;17.17;71.94;100345.96;79613;280;3013118;-68
2023/07/23 04:11:28;;;;;;;7.60;6.90;;;;;;;17.80;69.39;100341.36;78828;280;3028450;-73
2023/07/23 04:14:03;;;;;;;11.60;7.50;;;;;;;18.37;67.20;100342.54;78791;280;3027965;-73
2023/07/23 04:16:40;;;;;;;8.40;7.40;;;;;;;18.74;64.82;100341.48;79592;268;3011585;-74
2023/07/23 04:19:15;;;;;;;8.40;7.60;;;;;;;18.82;62.55;100341.93;78896;280;3027340;-71
2023/07/23 04:21:52;;;;;;;8.80;7.90;;;;;;;18.81;61.58;100338.70;79567;280;3011570;-70
2023/07/23 04:24:27;;;;;;;9.90;7.90;;;;;;;18.70;60.75;100344.21;78838;279;3027510;-71
2023/07/23 04:27:05;;;;;;;8.90;7.00;;;;;;;18.51;60.20;100353.38;79587;280;3011471;-70
2023/07/23 04:29:40;;;;;;;8.50;7.10;;;;;;;18.20;59.97;100346.05;78870;280;3027112;-71
2023/07/23 04:32:16;;;;;;;6.70;6.00;;;;;;;17.93;60.16;100348.95;79560;280;3011520;-70
2023/07/23 04:34:53;;;;;;;6.40;5.70;;;;;;;17.73;60.19;100351.95;79608;280;3011518;-71
2023/07/23 04:37:29;;;;;;;6.30;5.70;;;;;;;17.56;60.59;100351.83;79587;280;3011395;-71
2023/07/23 04:40:06;;;;;;;7.40;5.00;;;;;;;17.44;60.72;100352.76;79596;280;3011570;-71
2023/07/23 04:42:41;;;;;;;5.60;5.00;;;;;;;17.33;60.96;100358.11;78884;280;3027298;-71
2023/07/23 04:45:17;;;;;;;4.90;4.50;;;;;;;17.23;60.91;100357.89;79617;272;3011477;-71
2023/07/23 04:47:53;;;;;;;6.20;5.00;;;;;;;17.13;60.85;100355.54;78877;279;3027710;-70
2023/07/23 04:50:29;;;;;;;5.20;4.60;;;;;;;17.10;61.01;100354.70;79623;280;3011564;-73
2023/07/23 04:53:05;;;;;;;5.50;4.70;;;;;;;17.09;60.88;100354.95;79621;280;3011472;-73
2023/07/23 04:55:41;;;;;;;5.30;4.80;;;;;;;17.09;60.91;100348.42;79624;280;3011583;-74
2023/07/23 04:58:17;;;;;;;5.20;4.50;;;;;;;17.13;61.19;100344.43;78871;279;3027023;-75
2023/07/23 05:00:53;;;;;;;4.80;4.40;;;;;;;17.43;60.77;100340.87;78914;280;3026874;-72
2023/07/23 05:03:28;;;;;;;6.00;4.60;;;;;;;18.21;61.05;100341.19;78832;280;3027230;-74
2023/07/23 05:06:05;;;;;;;5.00;4.50;;;;;;;19.26;60.33;100338.70;79600;280;3011484;-71
2023/07/23 05:08:41;;;;;;;6.40;4.40;;;;;;;20.32;58.15;100335.04;78826;280;3027288;-71
2023/07/23 05:11:17;;;;;;;4.50;4.00;;;;;;;21.01;55.80;100332.83;79596;280;3011572;-75
2023/07/23 05:13:53;;;;;;;4.30;3.90;;;;;;;21.75;54.84;100330.52;78847;268;3026876;-76
2023/07/23 05:16:29;;;;;;;4.40;3.80;;;;;;;22.65;52.15;100330.20;78840;280;3029182;-74
2023/07/23 05:19:04;;;;;;;4.80;4.30;;;;;;;23.26;49.46;100325.89;78535;280;3027222;-72
2023/07/23 05:21:40;;;;;;;4.80;3.80;;;;;;;23.45;48.26;100326.16;78845;280;3027306;-72
2023/07/23 05:24:15;;;;;;;4.70;4.00;;;;;;;23.49;47.17;100326.14;78837;280;3027839;-74
2023/07/23 05:26:53;;;;;;;4.50;4.10;;;;;;;23.51;46.56;100330.19;78839;280;3027713;-74
2023/07/23 05:29:29;;;;;;;5.80;4.50;;;;;;;23.72;46.44;100333.38;78865;280;3027680;-73
2023/07/23 05:32:05;;;;;;;7.20;4.00;;;;;;;24.05;46.28;100335.96;78862;280;3028299;-74
2023/07/23 05:34:41;;;;;;;6.30;4.00;;;;;;;24.50;45.35;100338.14;78900;279;3028486;-72
2023/07/23 05:37:16;;;;;;;4.80;4.30;;;;;;;24.89;43.86;100334.66;78854;280;3028554;-71
2023/07/23 05:39:54;;;;;;;5.00;4.50;;;;;;;25.32;43.21;100326.67;79645;280;3011533;-71
2023/07/23 05:42:32;;;;;;;4.70;4.20;;;;;;;25.27;42.36;100323.79;78902;280;3027545;-71
2023/07/23 05:45:11;;;;;;;4.70;4.10;;;;;;;25.00;42.40;100323.22;78852;280;3027814;-71
2023/07/23 05:47:49;;;;;;;4.50;4.10;;;;;;;24.63;42.75;100324.08;78870;272;3027363;-72
2023/07/23 05:50:28;;;;;;;4.50;3.90;;;;;;;24.22;42.54;100318.84;78881;280;3028663;-70
2023/07/23 05:53:04;;;;;;;4.60;4.20;;;;;;;23.85;43.08;100322.40;78829;280;3026595;-69
2023/07/23 05:55:40;;;;;;;6.40;4.30;;;;;;;23.63;44.18;100321.60;78862;280;3028087;-70
2023/07/23 05:58:16;;;;;;;6.20;4.30;;;;;;;23.49;45.04;100319.70;78863;280;3028167;-73
2023/07/23 06:00:52;;;;;;;4.20;3.80;;;;;;;23.48;44.95;100322.95;78859;280;3026895;-71
2023/07/23 06:03:37;;;;;;;4.50;4.00;;;;;;;23.46;45.18;100321.25;78838;280;3027058;-71
2023/07/23 06:06:17;;;;;;;5.00;4.00;;;;;;;23.33;45.25;100320.97;78725;280;3027571;-74
2023/07/23 06:08:55;;;;;;;4.00;3.70;;;;;;;23.25;45.30;100318.34;78847;291;3028604;-74
2023/07/23 06:11:31;;;;;;;4.70;3.20;;;;;;;23.21;45.43;100318.52;78818;273;3028618;-72
2023/07/23 06:14:07;;;;;;;4.50;3.40;;;;;;;23.17;45.31;100318.73;78853;280;3028131;-72
2023/07/23 06:16:42;;;;;;;3.70;3.30;;;;;;;23.19;45.20;100315.36;78800;280;3027430;-70
2023/07/23 06:19:18;;;;;;;3.90;3.50;;;;;;;23.23;45.53;100307.69;78842;280;3028293;-72
2023/07/23 06:21:58;;;;;;;4.10;3.50;;;;;;;23.40;45.89;100307.55;78836;280;3026690;-70
2023/07/23 06:24:40;;;;;;;4.20;3.60;;;;;;;24.07;45.87;100307.82;78838;280;3028525;-74
2023/07/23 06:27:16;;;;;;;3.80;3.40;;;;;;;25.24;44.27;100299.59;78833;280;3028568;-75
2023/07/23 06:29:52;;;;;;;4.10;3.60;;;;;;;26.45;42.86;100298.32;78896;280;3026820;-71
2023/07/23 06:32:28;;;;;;;4.70;3.70;;;;;;;27.67;40.09;100298.14;78867;280;3026847;-72
2023/07/23 06:35:10;;;;;;;4.50;3.50;;;;;;;28.63;38.54;100298.44;79617;280;3013414;-75
2023/07/23 06:37:46;;;;;;;3.40;3.10;;;;;;;29.43;35.97;100293.38;78886;280;3027499;-73
2023/07/23 06:40:22;;;;;;;5.00;3.40;;;;;;;29.68;35.21;100291.02;78865;280;3027353;-71
2023/07/23 06:42:57;;;;;;;3.30;3.00;;;;;;;30.27;34.16;100289.83;78836;279;3027356;-71
2023/07/23 06:45:39;;;;;;;4.80;3.10;;;;;;;30.95;32.61;100288.31;79609;280;3011583;-70
2023/07/23 06:48:17;;;;;;;5.40;2.90;;;;;;;31.41;31.31;100289.64;78869;280;3027145;-71
2023/07/23 06:50:55;;;;;;;3.60;3.00;;;;;;;31.35;30.81;100283.13;78841;280;3026985;-73
2023/07/23 06:53:32;;;;;;;3.40;3.10;;;;;;;31.08;30.43;100280.03;78881;280;3026694;-73
2023/07/23 06:56:09;;;;;;;3.50;3.10;;;;;;;30.70;30.73;100283.02;78816;280;3026826;-71
2023/07/23 06:58:46;;;;;;;3.90;2.90;;;;;;;30.23;31.40;100279.06;78866;280;3027108;-71
2023/07/23 07:01:23;;;;;;;3.20;2.90;;;;;;;29.81;31.87;100277.94;78833;279;3027617;-75
2023/07/23 07:03:58;;;;;;;3.40;3.10;;;;;;;29.56;32.47;100278.40;78852;280;3027633;-72
2023/07/23 07:06:34;;;;;;;3.10;2.90;;;;;;;29.29;32.57;100280.94;79468;331;3011530;-70
2023/07/23 07:09:12;;;;;;;3.90;3.00;;;;;;;29.10;32.79;100283.35;78833;280;3026990;-72
2023/07/23 07:11:47;;;;;;;3.00;2.80;;;;;;;29.02;33.21;100278.30;78848;280;3026923;-72
2023/07/23 07:14:26;;;;;;;3.30;2.90;;;;;;;29.24;32.85;100276.61;78817;280;3027332;-73
2023/07/23 07:17:03;;;;;;;4.00;3.10;;;;;;;29.48;32.55;100270.57;78839;280;3026994;-74
2023/07/23 07:19:41;;;;;;;3.20;2.90;;;;;;;29.89;31.53;100274.77;78884;280;3028354;-74
2023/07/23 07:22:18;;;;;;;4.10;3.30;;;;;;;30.50;31.16;100273.59;78869;280;3026644;-74
2023/07/23 07:24:53;;;;;;;3.40;3.10;;;;;;;31.28;30.27;100271.70;78886;280;3027304;-75
2023/07/23 07:27:29;;;;;;;3.60;3.30;;;;;;;31.53;28.79;100267.09;78892;280;3027745;-71
2023/07/23 07:30:08;;;;;;;3.40;2.70;;;;;;;31.25;28.84;100269.39;78858;280;3027021;-71
2023/07/23 07:32:43;;;;;;;4.80;4.30;;;;;;;30.80;28.93;100270.20;78858;292;3026851;-74
2023/07/23 07:35:18;;;;;;;3.50;2.90;;;;;;;30.43;29.06;100266.28;78898;280;3027212;-75
2023/07/23 07:37:57;;;;;;;3.00;2.70;;;;;;;30.08;29.64;100255.23;78874;280;3027434;-74
2023/07/23 07:40:34;;;;;;;4.00;3.40;;;;;;;29.95;30.18;100254.85;78860;280;3027156;-75
2023/07/23 07:43:12;;;;;;;3.40;2.60;;;;;;;30.13;30.20;100257.66;78834;280;3027307;-71
2023/07/23 07:45:51;;;;;;;2.80;2.40;;;;;;;30.72;29.89;100249.16;78893;280;3027580;-71
2023/07/23 07:48:27;;;;;;;4.30;2.40;;;;;;;31.40;29.20;100244.39;78827;280;3028689;-70
2023/07/23 07:51:05;;;;;;;2.80;2.50;;;;;;;32.00;28.62;100240.11;79565;280;3012998;-70
2023/07/23 07:53:42;;;;;;;2.80;2.60;;;;;;;32.36;27.90;100237.38;78789;280;3027469;-74
2023/07/23 07:56:22;;;;;;;2.70;2.50;;;;;;;32.52;27.50;100239.81;78892;280;3027145;-71
2023/07/23 07:58:59;;;;;;;;;;;;;;;32.51;27.08;100241.10;78865;280;3028018;-72
2023/07/23 08:01:37;;;;;;;2.40;2.20;;;;;;;32.20;26.63;100237.84;78872;280;3027017;-72
2023/07/23 08:04:16;;;;;;;4.00;2.30;;;;;;;31.89;26.94;100233.98;78917;280;3026570;-73
2023/07/23 08:06:53;;;;;;;2.60;2.00;;;;;;;31.72;26.62;100234.45;78858;280;3027368;-72
2023/07/23 08:09:29;;;;;;;2.20;2.00;;;;;;;31.71;27.77;100228.37;78853;280;3028501;-74
2023/07/23 08:12:08;;;;;;;2.50;2.00;;;;;;;32.08;27.39;100225.01;78874;280;3027603;-74
2023/07/23 08:14:44;;;;;;;2.40;2.20;;;;;;;32.34;26.56;100222.09;78870;280;3028912;-75
2023/07/23 08:17:25;;;;;;;4.10;2.40;;;;;;;32.38;26.72;100218.86;79655;279;3011583;-74
2023/07/23 08:20:03;;;;;;;3.40;2.40;;;;;;;32.44;26.67;100214.48;78980;280;3027129;-74
2023/07/23 08:22:42;;;;;;;3.20;2.20;;;;;;;32.39;26.14;100211.47;78980;280;3026611;-74
2023/07/23 08:25:21;;;;;;;3.40;2.50;;;;;;;32.40;25.85;100213.43;78852;280;3026799;-72
2023/07/23 08:28:00;;;;;;;2.30;2.10;;;;;;;32.64;25.40;100204.48;78787;280;3026884;-72
2023/07/23 08:30:36;;;;;;;2.30;2.10;;;;;;;33.00;25.62;100200.98;78847;279;3027301;-72
2023/07/23 08:33:12;;;;;;;2.50;2.30;;;;;;;33.24;24.92;100195.64;78847;280;3028138;-72
2023/07/23 08:35:49;;;;;;;2.80;2.50;;;;;;;32.95;24.66;100201.02;78938;280;3027955;-77
2023/07/23 08:38:26;;;;;;;3.80;2.60;;;;;;;32.62;25.05;100196.56;78848;280;3027379;-75
2023/07/23 08:41:03;;;;;;;2.80;2.40;;;;;;;32.38;25.54;100195.55;78881;280;3027046;-75
2023/07/23 08:44:11;;;;;;;6.20;2.70;;;;;;;32.28;25.27;100192.02;78841;281;3028120;-75
2023/07/23 08:46:49;;;;;;;2.60;2.20;;;;;;;32.08;25.46;100189.48;78889;280;3026779;-75
2023/07/23 08:49:25;;;;;;;2.90;2.40;;;;;;;31.87;25.75;100186.77;78874;280;3027383;-72
2023/07/23 08:52:01;;;;;;;2.30;2.10;;;;;;;31.83;26.72;100191.08;78868;279;3027651;-72
2023/07/23 08:54:43;;;;;;;4.40;2.30;;;;;;;31.74;26.43;100190.68;78782;281;3028877;-71
2023/07/23 08:57:19;;;;;;;3.50;2.50;;;;;;;31.63;26.34;100187.16;78878;280;3027375;-72
2023/07/23 08:59:55;;;;;;;2.70;2.40;;;;;;;31.71;26.32;100184.33;78887;280;3027996;-75
2023/07/23 09:02:32;;;;;;;2.90;2.50;;;;;;;31.60;26.50;100187.40;78958;280;3029432;-76
2023/07/23 09:05:10;;;;;;;2.50;2.30;;;;;;;31.40;26.32;100177.92;78847;280;3027409;-77
2023/07/23 09:07:55;;;;;;;5.80;2.60;;;;;;;31.32;26.90;100175.29;78851;280;3026971;-79
2023/07/23 09:10:31;;;;;;;2.60;2.40;;;;;;;31.42;26.96;100174.23;78847;280;3028124;-75
2023/07/23 09:13:15;;;;;;;2.70;2.40;;;;;;;31.43;26.70;100170.90;78848;280;3027212;-76
2023/07/23 09:16:01;;;;;;;3.40;2.40;;;;;;;31.62;26.50;100175.79;78863;280;3028527;-76
2023/07/23 09:18:43;;;;;;;3.60;2.60;;;;;;;32.01;26.31;100173.52;78708;281;3029514;-75
2023/07/23 09:21:26;;;;;;;3.50;2.80;;;;;;;32.38;26.13;100169.80;78842;280;3026665;-75
2023/07/23 09:24:09;;;;;;;3.10;2.40;;;;;;;32.62;26.16;100167.35;78867;280;3027151;-74
2023/07/23 09:26:46;;;;;;;3.80;2.50;;;;;;;32.98;25.87;100162.57;78815;280;3026887;-73
2023/07/23 09:29:22;;;;;;;3.40;2.70;;;;;;;33.30;25.85;100161.41;78741;273;3027130;-73
2023/07/23 09:31:58;;;;;;;2.80;2.40;;;;;;;33.50;25.51;100155.02;78795;280;3026646;-73
2023/07/23 09:34:34;;;;;;;3.80;2.70;;;;;;;33.36;25.09;100153.77;78827;280;3027964;-77
2023/07/23 09:37:13;;;;;;;3.20;2.70;;;;;;;32.81;25.49;100154.39;78856;280;3030631;-77
2023/07/23 09:39:48;;;;;;;3.10;2.70;;;;;;;32.44;25.66;100148.56;78855;280;3027508;-77
2023/07/23 09:42:26;;;;;;;3.00;2.70;;;;;;;32.27;25.65;100148.96;78818;280;3027302;-77
2023/07/23 09:45:06;;;;;;;3.20;2.90;;;;;;;32.10;25.33;100146.80;78933;280;3029051;-77
2023/07/23 09:47:41;;;;;;;3.40;2.70;;;;;;;31.91;26.04;100142.28;78830;280;3026713;-78
2023/07/23 09:50:17;;;;;;;7.20;5.30;;;;;;;31.80;26.69;100141.52;78848;280;3028381;-74
2023/07/23 09:52:53;;;;;;;4.60;3.40;;;;;;;31.91;27.28;100132.91;78835;280;3027599;-71
2023/07/23 09:55:29;;;;;;;3.80;2.80;;;;;;;32.00;27.29;100131.53;78857;280;3027101;-73
2023/07/23 09:58:08;;;;;;;2.90;2.70;;;;;;;32.03;26.82;100126.42;78844;280;3027020;-74
2023/07/23 10:00:46;;;;;;;27.10;12.70;;;;;;;31.91;26.29;100121.88;78872;280;3031026;-76
2023/07/23 10:03:24;;;;;;;4.90;3.60;;;;;;;31.82;27.15;100120.69;78864;280;3026820;-76
2023/07/23 10:06:01;;;;;;;3.40;2.90;;;;;;;31.95;27.38;100116.11;78879;280;3028604;-76
2023/07/23 10:08:39;;;;;;;3.20;2.60;;;;;;;32.00;27.32;100119.57;78893;280;3027621;-76
2023/07/23 10:11:21;;;;;;;3.40;2.80;;;;;;;31.98;26.95;100112.95;78903;280;3026529;-73
2023/07/23 10:13:58;;;;;;;3.40;2.80;;;;;;;31.93;26.75;100109.69;78846;279;3027144;-74
2023/07/23 10:16:38;;;;;;;3.80;3.20;;;;;;;31.72;26.80;100113.18;78853;280;3026980;-72
2023/07/23 10:19:16;;;;;;;3.00;2.70;;;;;;;31.37;26.32;100104.77;78866;280;3027319;-75
2023/07/23 10:21:53;;;;;;;3.20;2.90;;;;;;;31.16;26.71;100095.63;78824;280;3027808;-74
2023/07/23 10:24:42;;;;;;;4.40;2.60;;;;;;;31.03;26.90;100098.14;78902;280;3028208;-70
2023/07/23 10:27:18;;;;;;;3.90;2.50;;;;;;;30.99;27.03;100095.62;78853;280;3027426;-71
2023/07/23 10:30:20;;;;;;;5.50;2.90;;;;;;;30.95;26.74;100089.44;78833;280;3028284;-74
2023/07/23 10:33:37;;;;;;;3.70;2.90;;;;;;;30.82;26.94;100085.02;78841;280;3028649;-71
2023/07/23 10:36:13;;;;;;;3.20;2.90;;;;;;;30.60;26.90;100079.34;78620;278;3027077;-71
2023/07/23 10:38:53;;;;;;;4.40;2.50;;;;;;;30.47;27.48;100078.90;78841;279;3028950;-73
2023/07/23 10:41:55;;;;;;;2.80;2.60;;;;;;;30.41;27.61;100072.41;78842;280;3027080;-74
2023/07/23 10:44:32;;;;;;;3.20;2.90;;;;;;;30.37;27.71;100071.29;78856;279;3027063;-75
2023/07/23 10:47:31;;;;;;;3.80;3.00;;;;;;;30.31;27.77;100062.70;78869;280;3026794;-75
2023/07/23 10:50:17;;;;;;;4.80;2.70;;;;;;;30.15;27.96;100065.64;78823;304;3027158;-74
2023/07/23 10:53:02;;;;;;;2.70;2.50;;;;;;;29.91;28.10;100067.23;78848;280;3028506;-75
2023/07/23 10:55:47;;;;;;;3.80;2.80;;;;;;;29.58;28.22;100060.10;78859;280;3026866;-75
2023/07/23 10:58:25;;;;;;;3.40;2.80;;;;;;;29.23;28.23;100062.73;78827;280;3027007;-75
2023/07/23 11:01:02;;;;;;;4.20;3.50;;;;;;;28.97;28.81;100058.84;78816;280;3027549;-72
2023/07/23 11:03:42;;;;;;;3.80;2.70;;;;;;;28.78;29.39;100059.70;78837;280;3027097;-71
2023/07/23 11:06:32;;;;;;;5.20;2.90;;;;;;;28.56;29.77;100053.91;78848;280;3027586;-72
2023/07/23 11:09:11;;;;;;;3.60;2.80;;;;;;;28.32;29.72;100057.98;78849;280;3027684;-74
2023/07/23 11:11:49;;;;;;;3.70;2.90;;;;;;;28.09;30.28;100057.48;78869;268;3030524;-75
2023/07/23 11:14:27;;;;;;;3.70;2.70;;;;;;;27.88;30.52;100052.86;78862;280;3027826;-72
2023/07/23 11:17:04;;;;;;;3.50;2.90;;;;;;;27.67;30.93;100057.65;78845;280;3027522;-70
2023/07/23 11:19:44;;;;;;;3.80;2.70;;;;;;;27.47;31.27;100056.70;78861;280;3028076;-72
2023/07/23 11:22:19;;;;;;;4.60;2.80;;;;;;;27.28;31.76;100051.75;78835;280;3028422;-72
2023/07/23 11:24:56;;;;;;;3.90;2.80;;;;;;;27.15;32.05;100058.28;79607;280;3011549;-72
2023/07/23 11:27:31;;;;;;;3.40;3.00;;;;;;;27.02;32.03;100055.61;78804;280;3027950;-71
2023/07/23 11:30:09;;;;;;;3.20;2.80;;;;;;;26.90;32.22;100053.18;78811;280;3027976;-72
2023/07/23 11:32:48;;;;;;;4.60;3.10;;;;;;;26.76;32.29;100049.36;78846;280;3026559;-72
2023/07/23 11:35:23;;;;;;;4.30;3.00;;;;;;;26.65;32.48;100047.39;78831;280;3027180;-71
2023/07/23 11:38:05;;;;;;;4.10;3.10;;;;;;;26.59;32.59;100048.23;78818;279;3027608;-71
2023/07/23 11:40:42;;;;;;;4.30;2.80;;;;;;;26.54;32.96;100050.59;78823;280;3027726;-72
2023/07/23 11:43:17;;;;;;;6.10;3.20;;;;;;;26.48;33.18;100048.65;78848;280;3028809;-72
2023/07/23 11:45:56;;;;;;;2.70;2.50;;;;;;;26.40;33.07;100049.71;79571;279;3011567;-72
2023/07/23 11:48:32;;;;;;;6.30;3.10;;;;;;;26.32;32.93;100045.27;78850;280;3028235;-72
2023/07/23 11:51:07;;;;;;;8.10;3.20;;;;;;;26.19;33.56;100049.12;78834;280;3027395;-71
2023/07/23 11:53:43;;;;;;;3.20;2.90;;;;;;;26.07;34.85;100067.14;78853;280;3027159;-71
2023/07/23 11:56:23;;;;;;;4.50;2.90;;;;;;;25.93;36.71;100063.07;79590;280;3011535;-72
2023/07/23 11:59:02;;;;;;;3.50;2.90;;;;;;;25.75;37.98;100054.63;78829;280;3027152;-74
2023/07/23 12:01:39;;;;;;;3.50;3.00;;;;;;;25.56;37.98;100064.45;78845;299;3028683;-72
2023/07/23 12:04:14;;;;;;;3.90;3.10;;;;;;;25.39;38.79;100068.77;78810;272;3028138;-72